createdAt,value
2018-10-09T00:02:20.182Z,18.03
2018-10-09T00:04:50.704Z,18.10
2018-10-09T00:07:21.426Z,16.30
2018-10-09T00:09:52.107Z,17.37
2018-10-09T00:12:23.022Z,15.63
2018-10-09T00:14:53.512Z,15.20
2018-10-09T00:17:24.411Z,15.80
2018-10-09T00:19:55.486Z,15.83
2018-10-09T00:22:25.980Z,15.77
2018-10-09T00:24:56.484Z,15.17
2018-10-09T00:27:27.900Z,17.43
2018-10-09T00:29:58.436Z,16.20
2018-10-09T00:32:30.092Z,19.17
2018-10-09T00:35:00.943Z,19.37
2018-10-09T00:37:31.795Z,16.23
2018-10-09T00:40:02.361Z,17.47
2018-10-09T00:42:33.523Z,15.60
2018-10-09T00:45:04.057Z,15.80
2018-10-09T00:47:34.625Z,16.43
2018-10-09T00:50:05.210Z,17.83
2018-10-09T00:52:35.740Z,16.73
2018-10-09T00:55:07.171Z,17.93
2018-10-09T00:57:38.322Z,17.97
2018-10-09T01:00:09.001Z,19.93
2018-10-09T01:02:39.711Z,17.50
2018-10-09T01:05:10.355Z,18.63
2018-10-09T01:07:40.962Z,19.00
2018-10-09T01:10:11.564Z,17.83
2018-10-09T01:12:42.502Z,18.27
2018-10-09T01:15:13.357Z,16.87
2018-10-09T01:17:43.989Z,20.03
2018-10-09T01:20:14.568Z,14.57
2018-10-09T01:22:45.314Z,18.57
2018-10-09T01:25:15.806Z,17.77
2018-10-09T01:27:46.438Z,17.40
2018-10-09T01:30:17.044Z,20.50
2018-10-09T01:32:47.817Z,19.03
2018-10-09T01:35:19.022Z,18.50
2018-10-09T01:37:49.642Z,27.00
2018-10-09T01:40:20.203Z,23.07
2018-10-09T01:42:51.186Z,20.40
2018-10-09T01:45:22.174Z,22.40
2018-10-09T01:47:52.764Z,19.30
2018-10-09T01:50:23.805Z,19.07
2018-10-09T01:52:54.681Z,21.23
2018-10-09T01:55:25.525Z,23.07
2018-10-09T01:57:56.046Z,18.97
2018-10-09T02:00:26.534Z,22.90
2018-10-09T02:02:57.746Z,21.57
2018-10-09T02:05:28.356Z,21.50
2018-10-09T02:07:59.835Z,19.70
2018-10-09T02:10:30.381Z,24.57
2018-10-09T02:13:01.418Z,22.30
2018-10-09T02:15:31.918Z,23.90
2018-10-09T02:18:03.356Z,20.23
2018-10-09T02:20:33.858Z,20.73
2018-10-09T02:23:04.803Z,20.27
2018-10-09T02:25:35.305Z,19.60
2018-10-09T02:28:05.861Z,19.70
2018-10-09T02:30:37.193Z,18.80
2018-10-09T02:33:08.613Z,21.17
2018-10-09T02:35:39.623Z,17.70
2018-10-09T02:38:10.047Z,19.57
2018-10-09T02:40:40.848Z,17.63
2018-10-09T02:43:11.411Z,21.73
2018-10-09T02:45:42.057Z,22.27
2018-10-09T02:48:12.702Z,20.40
2018-10-09T02:50:43.173Z,19.73
2018-10-09T02:53:13.700Z,19.73
2018-10-09T02:55:44.502Z,17.93
2018-10-09T02:58:15.007Z,18.10
2018-10-09T03:00:45.847Z,20.37
2018-10-09T03:03:16.375Z,18.67
2018-10-09T03:05:47.290Z,16.40
2018-10-09T03:08:17.835Z,20.90
2018-10-09T03:10:48.774Z,20.20
2018-10-09T03:13:19.296Z,17.60
2018-10-09T03:15:50.333Z,22.03
2018-10-09T03:18:20.812Z,21.97
2018-10-09T03:20:51.314Z,19.23
2018-10-09T03:23:22.170Z,20.27
2018-10-09T03:25:52.720Z,23.23
2018-10-09T03:28:23.767Z,22.00
2018-10-09T03:30:54.248Z,20.47
2018-10-09T03:33:25.125Z,20.93
2018-10-09T03:35:55.946Z,20.47
2018-10-09T03:38:26.599Z,21.10
2018-10-09T03:40:57.090Z,22.60
2018-10-09T03:43:27.862Z,23.87
2018-10-09T03:45:58.541Z,20.97
2018-10-09T03:48:29.502Z,20.53
2018-10-09T03:51:00.185Z,22.13
2018-10-09T03:53:31.006Z,23.40
2018-10-09T03:56:01.697Z,19.87
2018-10-09T03:58:32.661Z,20.63
2018-10-09T04:01:03.437Z,24.90
2018-10-09T04:03:34.251Z,19.10
2018-10-09T04:06:04.736Z,19.83
2018-10-09T04:08:35.407Z,19.20
2018-10-09T04:11:06.219Z,21.27
2018-10-09T04:13:37.377Z,18.37
2018-10-09T04:16:08.869Z,24.53
2018-10-09T04:18:39.330Z,17.90
2018-10-09T04:21:10.645Z,21.73
2018-10-09T04:23:41.732Z,20.20
2018-10-09T04:26:12.485Z,19.00
2018-10-09T04:28:43.067Z,19.77
2018-10-09T04:31:13.794Z,19.87
2018-10-09T04:33:44.357Z,18.93
2018-10-09T04:36:14.943Z,24.87
2018-10-09T04:38:45.440Z,24.27
2018-10-09T04:41:16.175Z,22.37
2018-10-09T04:43:46.984Z,24.10
2018-10-09T04:46:17.434Z,28.63
2018-10-09T04:48:48.100Z,25.03
2018-10-09T04:51:18.567Z,23.63
2018-10-09T04:53:49.080Z,25.83
2018-10-09T04:56:19.608Z,25.40
2018-10-09T04:58:50.191Z,19.73
2018-10-09T05:01:20.602Z,21.37
2018-10-09T05:03:51.310Z,22.53
2018-10-09T05:06:22.028Z,24.33
2018-10-09T05:08:52.968Z,22.60
2018-10-09T05:11:23.575Z,24.60
2018-10-09T05:13:54.263Z,30.70
2018-10-09T05:16:24.819Z,25.67
2018-10-09T05:18:55.830Z,25.53
2018-10-09T05:21:27.391Z,23.73
2018-10-09T05:23:58.023Z,21.97
2018-10-09T05:26:29.426Z,23.90
2018-10-09T05:29:00.002Z,23.03
2018-10-09T05:31:30.545Z,21.60
2018-10-09T05:34:02.192Z,26.27
2018-10-09T05:36:32.886Z,24.27
2018-10-09T05:39:05.922Z,20.83
2018-10-09T05:41:38.158Z,22.20
2018-10-09T05:44:08.851Z,21.27
2018-10-09T05:46:40.671Z,23.03
2018-10-09T05:49:11.331Z,22.33
2018-10-09T05:51:42.043Z,22.97
2018-10-09T05:54:13.046Z,20.70
2018-10-09T05:56:43.642Z,21.03
2018-10-09T05:59:14.191Z,23.97
2018-10-09T06:01:44.864Z,22.83
2018-10-09T06:04:15.606Z,19.73
2018-10-09T06:06:46.234Z,20.70
2018-10-09T06:09:17.018Z,21.97
2018-10-09T06:11:47.736Z,23.27
2018-10-09T06:14:19.973Z,21.30
2018-10-09T06:16:51.654Z,21.50
2018-10-09T06:19:22.417Z,23.07
2018-10-09T06:21:54.154Z,20.93
2018-10-09T06:24:25.020Z,21.17
2018-10-09T06:26:55.496Z,22.50
2018-10-09T06:29:27.422Z,22.63
2018-10-09T06:31:57.927Z,24.50
2018-10-09T06:34:29.423Z,21.20
2018-10-09T06:36:59.952Z,24.80
2018-10-09T06:39:31.407Z,26.03
2018-10-09T06:42:02.086Z,21.33
2018-10-09T06:44:33.290Z,20.20
2018-10-09T06:47:04.293Z,23.77
2018-10-09T06:49:35.480Z,21.43
2018-10-09T06:52:06.206Z,22.53
2018-10-09T06:54:37.391Z,21.73
2018-10-09T06:57:07.901Z,22.20
2018-10-09T06:59:38.913Z,23.20
2018-10-09T07:02:09.642Z,23.77
2018-10-09T07:04:40.458Z,21.53
2018-10-09T07:07:11.514Z,20.97
2018-10-09T07:09:42.156Z,19.63
2018-10-09T07:12:13.050Z,21.93
2018-10-09T07:14:44.150Z,18.53
2018-10-09T07:17:14.830Z,20.10
2018-10-09T07:19:45.509Z,19.13
2018-10-09T07:22:15.970Z,22.03
2018-10-09T07:24:47.206Z,19.13
2018-10-09T07:27:17.674Z,16.60
2018-10-09T07:29:49.190Z,18.20
2018-10-09T07:32:19.722Z,19.13
2018-10-09T07:34:51.477Z,19.73
2018-10-09T07:37:21.992Z,18.63
2018-10-09T07:39:53.487Z,16.07
2018-10-09T07:42:24.024Z,15.40
2018-10-09T07:44:55.528Z,17.67
2018-10-09T07:47:26.023Z,14.47
2018-10-09T07:49:56.526Z,14.33
2018-10-09T07:52:28.139Z,14.20
2018-10-09T07:54:58.745Z,12.15
2018-10-09T07:57:30.442Z,12.85
2018-10-09T08:00:00.903Z,13.40
2018-10-09T08:02:31.838Z,12.85
2018-10-09T08:05:02.310Z,14.23
2018-10-09T08:07:32.799Z,12.13
2018-10-09T08:10:03.404Z,11.63
2018-10-09T08:12:34.162Z,12.30
2018-10-09T08:15:04.750Z,12.75
2018-10-09T08:17:35.267Z,12.88
2018-10-09T08:20:06.442Z,12.78
2018-10-09T08:22:37.259Z,14.47
2018-10-09T08:25:08.192Z,13.18
2018-10-09T08:27:38.843Z,13.30
2018-10-09T08:30:09.377Z,11.95
2018-10-09T08:32:40.168Z,14.38
2018-10-09T08:35:10.730Z,13.25
2018-10-09T08:37:41.381Z,14.03
2018-10-09T08:40:11.962Z,14.63
2018-10-09T08:42:42.373Z,12.78
2018-10-09T08:45:13.134Z,15.20
2018-10-09T08:47:43.602Z,13.70
2018-10-09T08:50:14.097Z,14.47
2018-10-09T08:52:45.069Z,18.32
2018-10-09T08:55:15.488Z,15.23
2018-10-09T08:57:46.741Z,14.90
2018-10-09T09:00:17.174Z,14.95
2018-10-09T09:02:48.458Z,18.05
2018-10-09T09:05:18.956Z,15.32
2018-10-09T09:07:49.883Z,15.78
2018-10-09T09:10:20.402Z,19.12
2018-10-09T09:12:51.590Z,14.35
2018-10-09T09:15:22.131Z,14.98
2018-10-09T09:17:52.640Z,16.57
2018-10-09T09:20:23.605Z,15.37
2018-10-09T09:22:54.089Z,17.70
2018-10-09T09:25:25.066Z,15.07
2018-10-09T09:27:55.568Z,15.93
2018-10-09T09:30:26.726Z,16.23
2018-10-09T09:32:57.200Z,14.97
2018-10-09T09:35:28.058Z,17.73
2018-10-09T09:37:58.538Z,16.90
2018-10-09T09:40:29.254Z,14.75
2018-10-09T09:42:59.750Z,16.35
2018-10-09T09:45:30.243Z,16.23
2018-10-09T09:48:01.123Z,16.55
2018-10-09T09:50:31.830Z,17.62
2018-10-09T09:53:02.918Z,16.55
2018-10-09T09:55:33.484Z,15.58
2018-10-09T09:58:04.629Z,19.82
2018-10-09T10:00:40.508Z,18.87
2018-10-09T10:03:11.071Z,18.20
2018-10-09T10:05:41.916Z,18.05
2018-10-09T10:08:13.758Z,18.10
2018-10-09T10:10:44.302Z,16.48
2018-10-09T10:13:14.996Z,16.25
2018-10-09T10:15:52.597Z,17.25
2018-10-09T10:18:22.999Z,16.00
2018-10-09T10:20:53.541Z,19.35
2018-10-09T10:23:24.372Z,15.63
2018-10-09T10:25:54.945Z,16.23
2018-10-09T10:28:25.583Z,15.83
2018-10-09T10:30:56.312Z,15.70
2018-10-09T10:33:26.935Z,15.93
2018-10-09T10:35:57.894Z,18.23
2018-10-09T10:38:28.423Z,14.50
2018-10-09T10:40:59.557Z,13.90
2018-10-09T10:43:30.031Z,11.93
2018-10-09T10:46:01.358Z,12.93
2018-10-09T10:48:32.053Z,12.05
2018-10-09T10:51:03.318Z,12.80
2018-10-09T10:53:33.826Z,11.68
2018-10-09T10:56:04.550Z,14.60
2018-10-09T10:58:35.824Z,10.98
2018-10-09T11:01:06.717Z,13.30
2018-10-09T11:03:37.600Z,13.00
2018-10-09T11:06:08.883Z,11.88
2018-10-09T11:08:39.678Z,11.35
2018-10-09T11:11:10.522Z,17.15
2018-10-09T11:13:41.153Z,11.38
2018-10-09T11:16:11.682Z,11.85
2018-10-09T11:18:42.650Z,10.03
2018-10-09T11:21:13.188Z,10.98
2018-10-09T11:23:43.922Z,12.73
2018-10-09T11:26:15.009Z,13.43
2018-10-09T11:28:45.561Z,10.70
2018-10-09T11:31:16.502Z,13.08
2018-10-09T11:33:49.486Z,9.05
2018-10-09T11:36:20.019Z,8.90
2018-10-09T11:38:50.807Z,8.70
2018-10-09T11:41:21.794Z,11.70
2018-10-09T11:43:52.430Z,16.40
2018-10-09T11:46:23.160Z,11.93
2018-10-09T11:48:53.570Z,10.20
2018-10-09T11:51:24.209Z,13.80
2018-10-09T11:53:55.106Z,10.15
2018-10-09T11:56:25.606Z,10.53
2018-10-09T11:58:56.108Z,9.58
2018-10-09T12:01:26.846Z,9.35
2018-10-09T12:03:57.380Z,10.18
2018-10-09T12:06:28.521Z,10.13
2018-10-09T12:08:59.447Z,17.73
2018-10-09T12:11:31.023Z,12.00
2018-10-09T12:14:01.518Z,10.45
2018-10-09T12:16:32.414Z,11.93
2018-10-09T12:19:03.281Z,10.25
2018-10-09T12:21:34.001Z,10.43
2018-10-09T12:24:05.121Z,10.43
2018-10-09T12:26:35.751Z,13.28
2018-10-09T12:29:06.754Z,9.50
2018-10-09T12:31:37.233Z,8.30
2018-10-09T12:34:08.234Z,10.30
2018-10-09T12:36:38.773Z,9.63
2018-10-09T12:39:13.070Z,11.53
2018-10-09T12:41:43.835Z,10.23
2018-10-09T12:44:14.989Z,12.03
2018-10-09T12:46:45.410Z,7.67
2018-10-09T12:49:16.607Z,10.80
2018-10-09T12:51:47.075Z,7.80
2018-10-09T12:54:17.874Z,8.95
2018-10-09T12:56:48.352Z,7.42
2018-10-09T12:59:19.155Z,10.93
2018-10-09T13:01:49.717Z,11.47
2018-10-09T13:04:20.663Z,20.33
2018-10-09T13:06:51.227Z,10.57
2018-10-09T13:09:22.195Z,9.77
2018-10-09T13:11:52.751Z,10.33
2018-10-09T13:14:23.386Z,11.10
2018-10-09T13:16:54.211Z,10.23
2018-10-09T13:19:24.841Z,10.13
2018-10-09T13:21:55.850Z,13.87
2018-10-09T13:24:25.911Z,10.87
2018-10-09T13:26:56.401Z,10.67
2018-10-09T13:29:26.963Z,12.70
2018-10-09T13:31:57.442Z,9.50
2018-10-09T13:34:28.252Z,9.78
2018-10-09T13:36:58.972Z,10.95
2018-10-09T13:39:29.465Z,9.65
2018-10-09T13:41:59.920Z,11.45
2018-10-09T13:44:30.970Z,10.45
2018-10-09T13:47:01.486Z,13.35
2018-10-09T13:49:32.337Z,10.45
2018-10-09T13:52:02.948Z,12.85
2018-10-09T13:54:33.392Z,10.08
2018-10-09T13:57:04.111Z,9.98
2018-10-09T13:59:34.585Z,10.10
2018-10-09T14:02:05.191Z,12.68
2018-10-09T14:04:36.019Z,9.95
2018-10-09T14:07:06.652Z,10.10
2018-10-09T14:09:37.284Z,11.38
2018-10-09T14:12:07.783Z,9.90
2018-10-09T14:14:38.762Z,9.23
2018-10-09T14:17:09.340Z,10.95
2018-10-09T14:19:40.257Z,9.08
2018-10-09T14:22:11.183Z,11.20
2018-10-09T14:24:41.620Z,12.00
2018-10-09T14:27:12.424Z,10.50
2018-10-09T14:29:42.935Z,9.78
2018-10-09T14:32:13.595Z,9.70
2018-10-09T14:34:44.095Z,11.22
2018-10-09T14:37:14.568Z,10.25
2018-10-09T14:39:45.069Z,10.72
2018-10-09T14:42:15.809Z,10.95
2018-10-09T14:44:46.252Z,10.47
2018-10-09T14:47:16.719Z,12.00
2018-10-09T14:49:47.309Z,13.62
2018-10-09T14:52:19.156Z,15.03
2018-10-09T14:54:49.704Z,12.97
2018-10-09T14:57:20.206Z,17.47
2018-10-09T14:59:50.653Z,17.57
2018-10-09T15:02:21.377Z,17.13
2018-10-09T15:04:51.907Z,11.90
2018-10-09T15:07:22.369Z,13.57
2018-10-09T15:09:52.934Z,12.88
2018-10-09T15:12:23.599Z,12.57
2018-10-09T15:14:54.127Z,14.67
2018-10-09T15:17:24.607Z,23.70
2018-10-09T15:19:55.270Z,15.80
2018-10-09T15:22:25.747Z,13.90
2018-10-09T15:24:56.350Z,14.30
2018-10-09T15:27:26.938Z,14.37
2018-10-09T15:29:58.010Z,12.82
2018-10-09T15:32:28.475Z,16.07
2018-10-09T15:34:59.149Z,18.20
2018-10-09T15:37:29.660Z,16.17
2018-10-09T15:40:00.150Z,15.73
2018-10-09T15:42:30.709Z,14.63
2018-10-09T15:45:01.251Z,14.50
2018-10-09T15:47:31.776Z,15.10
2018-10-09T15:50:02.609Z,15.03
2018-10-09T15:52:33.134Z,15.60
2018-10-09T15:55:03.647Z,14.13
2018-10-09T15:57:34.157Z,14.77
2018-10-09T16:00:04.953Z,15.43
2018-10-09T16:02:35.542Z,15.53
2018-10-09T16:05:06.314Z,14.67
2018-10-09T16:07:36.902Z,17.37
2018-10-09T16:10:07.591Z,14.47
2018-10-09T16:12:38.146Z,14.97
2018-10-09T16:15:08.635Z,17.53
2018-10-09T16:17:39.134Z,16.63
2018-10-09T16:20:09.785Z,18.23
2018-10-09T16:22:40.296Z,18.33
2018-10-09T16:25:10.909Z,18.83
2018-10-09T16:27:41.384Z,15.30
2018-10-09T16:30:11.884Z,17.20
2018-10-09T16:32:42.561Z,15.60
2018-10-09T16:35:12.978Z,16.17
2018-10-09T16:37:43.556Z,16.30
2018-10-09T16:40:14.149Z,19.23
2018-10-09T16:42:44.620Z,17.90
2018-10-09T16:45:15.102Z,36.47
2018-10-09T16:47:45.732Z,33.67
2018-10-09T16:50:16.294Z,31.73
2018-10-09T16:52:46.832Z,26.13
2018-10-09T16:55:17.572Z,21.97
2018-10-09T16:57:48.102Z,17.80
2018-10-09T17:00:18.590Z,19.53
2018-10-09T17:02:49.083Z,18.27
2018-10-09T17:05:19.550Z,20.17
2018-10-09T17:07:50.072Z,18.57
2018-10-09T17:10:20.646Z,18.37
2018-10-09T17:12:51.114Z,23.87
2018-10-09T17:15:21.632Z,19.50
2018-10-09T17:17:52.179Z,21.60
2018-10-09T17:20:22.667Z,22.13
2018-10-09T17:22:53.199Z,23.43
2018-10-09T17:25:23.893Z,20.57
2018-10-09T17:27:54.517Z,24.57
2018-10-09T17:30:25.054Z,27.90
2018-10-09T17:32:55.606Z,23.87
2018-10-09T17:35:26.094Z,21.93
2018-10-09T17:37:56.522Z,22.53
2018-10-09T17:40:26.999Z,21.23
2018-10-09T17:42:57.457Z,23.47
2018-10-09T17:45:28.307Z,25.43
2018-10-09T17:47:58.792Z,21.80
2018-10-09T17:50:30.015Z,26.13
2018-10-09T17:53:00.515Z,25.00
2018-10-09T17:55:31.009Z,23.87
2018-10-09T17:58:01.526Z,21.90
2018-10-09T18:00:32.025Z,26.23
2018-10-09T18:03:02.598Z,22.33
2018-10-09T18:05:33.035Z,22.80
2018-10-09T18:08:03.503Z,23.47
2018-10-09T18:10:33.992Z,25.07
2018-10-09T18:13:04.547Z,23.53
2018-10-09T18:15:35.104Z,24.03
2018-10-09T18:18:06.510Z,23.87
2018-10-09T18:20:37.048Z,25.20
2018-10-09T18:23:07.550Z,26.20
2018-10-09T18:25:38.009Z,23.87
2018-10-09T18:28:08.802Z,23.63
2018-10-09T18:30:39.344Z,25.13
2018-10-09T18:33:09.962Z,27.47
2018-10-09T18:35:40.376Z,50.20
2018-10-09T18:38:10.878Z,71.53
2018-10-09T18:40:41.499Z,29.67
2018-10-09T18:43:12.227Z,26.77
2018-10-09T18:45:42.747Z,27.30
2018-10-09T18:48:13.248Z,29.33
2018-10-09T18:50:43.783Z,25.20
2018-10-09T18:53:14.663Z,28.80
2018-10-09T18:55:45.254Z,24.83
2018-10-09T18:58:15.884Z,27.73
2018-10-09T19:00:46.344Z,33.63
2018-10-09T19:03:16.864Z,37.50
2018-10-09T19:05:47.381Z,27.73
2018-10-09T19:08:17.897Z,28.87
2018-10-09T19:10:48.531Z,27.77
2018-10-09T19:13:19.342Z,26.43
2018-10-09T19:15:50.145Z,25.60
2018-10-09T19:18:20.626Z,27.57
2018-10-09T19:20:51.106Z,29.50
2018-10-09T19:23:21.711Z,28.80
2018-10-09T19:25:52.325Z,29.13
2018-10-09T19:28:22.855Z,28.30
2018-10-09T19:30:53.388Z,29.60
2018-10-09T19:33:23.915Z,31.67
2018-10-09T19:35:54.445Z,31.20
2018-10-09T19:38:25.180Z,29.90
2018-10-09T19:40:55.884Z,31.97
2018-10-09T19:43:26.376Z,32.57
2018-10-09T19:45:56.850Z,30.77
2018-10-09T19:48:27.330Z,33.87
2018-10-09T19:50:58.018Z,35.13
2018-10-09T19:53:28.526Z,32.50
2018-10-09T19:55:59.402Z,30.87
2018-10-09T19:58:29.942Z,30.77
2018-10-09T20:01:00.612Z,58.57
2018-10-09T20:03:31.035Z,43.73
2018-10-09T20:06:01.644Z,35.87
2018-10-09T20:08:32.162Z,34.50
2018-10-09T20:11:02.794Z,31.90
2018-10-09T20:13:33.242Z,35.77
2018-10-09T20:16:03.770Z,33.20
2018-10-09T20:18:34.270Z,33.73
2018-10-09T20:21:04.993Z,30.50
2018-10-09T20:23:35.800Z,33.27
2018-10-09T20:26:06.372Z,32.77
2018-10-09T20:28:37.024Z,42.77
2018-10-09T20:31:07.490Z,88.40
2018-10-09T20:33:38.029Z,52.03
2018-10-09T20:36:08.595Z,40.17
2018-10-09T20:38:39.075Z,48.40
2018-10-09T20:41:09.552Z,46.47
2018-10-09T20:43:40.419Z,71.30
2018-10-09T20:46:10.926Z,69.60
2018-10-09T20:48:41.539Z,52.47
2018-10-09T20:51:12.027Z,52.90
2018-10-09T20:53:42.616Z,51.03
2018-10-09T20:56:13.089Z,44.97
2018-10-09T20:58:43.567Z,50.40
2018-10-09T21:01:14.088Z,48.53
2018-10-09T21:03:44.640Z,52.67
2018-10-09T21:06:15.206Z,49.83
2018-10-09T21:08:45.789Z,47.03
2018-10-09T21:11:16.287Z,41.67
2018-10-09T21:13:46.801Z,40.47
2018-10-09T21:16:17.337Z,43.53
2018-10-09T21:18:48.013Z,41.43
2018-10-09T21:21:18.446Z,39.90
2018-10-09T21:23:49.227Z,40.37
2018-10-09T21:26:19.732Z,41.17
2018-10-09T21:28:50.435Z,47.17
2018-10-09T21:31:21.061Z,43.90
2018-10-09T21:33:51.699Z,40.80
2018-10-09T21:36:22.167Z,39.53
2018-10-09T21:38:53.008Z,38.77
2018-10-09T21:41:23.486Z,40.37
2018-10-09T21:43:55.107Z,40.10
2018-10-09T21:46:25.569Z,39.27
2018-10-09T21:48:56.397Z,39.20
2018-10-09T21:51:26.878Z,37.53
2018-10-09T21:53:57.426Z,36.10
2018-10-09T21:56:28.243Z,36.00
2018-10-09T21:58:58.723Z,32.00
2018-10-09T22:01:29.210Z,28.77
2018-10-09T22:03:59.742Z,31.47
2018-10-09T22:06:30.327Z,30.93
2018-10-09T22:09:01.060Z,32.20
2018-10-09T22:11:31.504Z,32.60
2018-10-09T22:14:02.038Z,33.00
2018-10-09T22:16:32.538Z,33.13
2018-10-09T22:19:03.077Z,34.77
2018-10-09T22:21:33.654Z,32.40
2018-10-09T22:24:04.239Z,36.33
2018-10-09T22:26:34.755Z,36.03
2018-10-09T22:29:05.250Z,40.80
2018-10-09T22:31:35.713Z,36.10
2018-10-09T22:34:06.255Z,35.47
2018-10-09T22:36:36.787Z,31.93
2018-10-09T22:39:09.272Z,34.80
2018-10-09T22:41:39.830Z,32.40
2018-10-09T22:44:10.319Z,34.10
2018-10-09T22:46:41.091Z,32.13
2018-10-09T22:49:11.556Z,29.03
2018-10-09T22:51:42.117Z,32.70
2018-10-09T22:54:12.571Z,31.73
2018-10-09T22:56:43.419Z,28.23
2018-10-09T22:59:13.944Z,28.27
2018-10-09T23:01:44.510Z,29.73
2018-10-09T23:04:15.031Z,27.87
2018-10-09T23:06:45.556Z,30.33
2018-10-09T23:09:16.113Z,32.70
2018-10-09T23:11:46.885Z,29.03
2018-10-09T23:14:17.787Z,27.77
2018-10-09T23:16:48.302Z,30.10
2018-10-09T23:19:18.832Z,27.60
2018-10-09T23:21:49.354Z,27.47
2018-10-09T23:24:19.863Z,27.57
2018-10-09T23:26:50.510Z,28.30
2018-10-09T23:29:21.183Z,27.23
2018-10-09T23:31:52.052Z,28.13
2018-10-09T23:34:22.659Z,27.90
2018-10-09T23:36:53.229Z,26.73
2018-10-09T23:39:23.891Z,25.33
2018-10-09T23:41:54.390Z,26.00
2018-10-09T23:44:24.922Z,27.83
2018-10-09T23:46:55.620Z,26.80
2018-10-09T23:49:26.145Z,24.33
2018-10-09T23:51:56.646Z,27.07
2018-10-09T23:54:27.125Z,24.93
2018-10-09T23:56:57.985Z,27.37
2018-10-09T23:59:28.510Z,24.07
